Time;durP1;ratioP1;P1;durP2;ratioP2;P2;SDS_P1;SDS_P2;PMS_P1;PMS_P2;Temp;Humidity;BMP_temperature;BMP_pressure;BME280_temperature;BME280_humidity;BME280_pressure;Samples;Min_cycle;Max_cycle;Signal;HPM_P1;HPM_P2
2023/01/09 00:00:19;;;;;;;3.37;1.73;;;7.80;99.90;;;;;;5050971;28;20041;-60
2023/01/09 00:02:45;;;;;;;2.42;1.27;;;7.80;99.90;;;;;;5049130;28;20059;-60
2023/01/09 00:05:13;;;;;;;5.80;1.03;;;7.70;99.90;;;;;;5050972;28;20033;-59
2023/01/09 00:07:39;;;;;;;1.15;0.73;;;7.70;99.90;;;;;;5051648;28;20025;-58
2023/01/09 00:10:06;;;;;;;2.83;1.63;;;7.70;99.90;;;;;;5051882;28;20040;-60
2023/01/09 00:12:32;;;;;;;1.65;0.85;;;7.70;99.90;;;;;;5051818;28;20459;-57
2023/01/09 00:14:57;;;;;;;3.40;1.60;;;7.70;99.90;;;;;;5051122;28;20068;-58
2023/01/09 00:17:23;;;;;;;3.73;1.00;;;7.70;99.90;;;;;;5051161;28;20502;-58
2023/01/09 00:19:49;;;;;;;1.85;1.02;;;7.70;99.90;;;;;;5051958;28;20032;-58
2023/01/09 00:22:14;;;;;;;4.97;1.87;;;7.70;99.90;;;;;;5051824;28;20048;-58
2023/01/09 00:24:40;;;;;;;5.13;1.43;;;7.70;99.90;;;;;;5050093;28;20051;-59
2023/01/09 00:27:06;;;;;;;4.13;1.27;;;7.80;99.90;;;;;;5050909;28;20564;-57
2023/01/09 00:29:31;;;;;;;4.80;1.00;;;7.80;99.90;;;;;;5051789;28;20035;-58
2023/01/09 00:31:57;;;;;;;2.10;0.90;;;7.90;99.90;;;;;;5051779;28;20036;-61
2023/01/09 00:34:23;;;;;;;5.63;1.33;;;7.90;99.90;;;;;;5050515;28;20039;-60
2023/01/09 00:36:53;;;;;;;7.40;1.30;;;7.90;99.90;;;;;;5051374;28;20116;-57
2023/01/09 00:39:20;;;;;;;5.50;1.45;;;8.00;99.90;;;;;;5050735;28;20060;-59
2023/01/09 00:41:48;;;;;;;5.85;1.90;;;8.00;99.90;;;;;;5050740;28;20045;-60
2023/01/09 00:44:21;;;;;;;6.38;1.30;;;8.00;99.90;;;;;;5050807;28;20044;-57
2023/01/09 00:46:55;;;;;;;5.82;2.50;;;8.00;99.90;;;;;;5051158;28;20079;-59
2023/01/09 00:49:21;;;;;;;3.95;1.67;;;8.00;99.90;;;;;;5050817;28;20032;-58
2023/01/09 00:51:47;;;;;;;4.78;1.60;;;8.00;99.90;;;;;;5051053;28;20463;-56
2023/01/09 00:54:16;;;;;;;3.63;1.80;;;8.00;99.90;;;;;;5050037;28;20064;-58
2023/01/09 00:56:42;;;;;;;3.25;1.52;;;7.90;99.90;;;;;;5050869;28;20084;-60
2023/01/09 00:59:07;;;;;;;4.40;1.80;;;7.90;99.90;;;;;;5050348;28;20079;-60
2023/01/09 01:01:33;;;;;;;2.97;1.63;;;7.90;99.90;;;;;;5049788;28;20040;-58
2023/01/09 01:07:37;;;;;;;4.17;1.50;;;7.90;99.90;;;;;;5049868;28;20029;-60
2023/01/09 01:09:28;;;;;;;2.90;1.40;;;7.90;99.90;;;;;;5050343;28;20041;-60
2023/01/09 01:11:54;;;;;;;4.40;2.20;;;7.80;99.90;;;;;;5050873;28;20033;-59
2023/01/09 01:14:19;;;;;;;4.30;1.90;;;7.80;99.90;;;;;;5049833;28;20081;-57
2023/01/09 01:16:45;;;;;;;1.87;1.33;;;7.80;99.90;;;;;;5050264;28;20051;-58
2023/01/09 01:19:10;;;;;;;6.20;1.30;;;7.80;99.90;;;;;;5050433;28;20041;-58
2023/01/09 01:21:37;;;;;;;4.93;2.43;;;7.80;99.90;;;;;;5050323;28;20094;-59
2023/01/09 01:24:03;;;;;;;2.17;1.05;;;7.80;99.90;;;;;;5050014;28;20322;-58
2023/01/09 01:26:28;;;;;;;4.70;1.38;;;7.80;99.90;;;;;;5050060;28;20072;-60
2023/01/09 01:28:54;;;;;;;2.33;0.80;;;7.70;99.90;;;;;;5050513;28;20103;-58
2023/01/09 01:31:19;;;;;;;4.77;1.23;;;7.70;99.90;;;;;;5050047;28;20033;-58
2023/01/09 01:33:45;;;;;;;4.93;1.00;;;7.70;99.90;;;;;;5049620;28;20045;-56
2023/01/09 01:36:11;;;;;;;1.63;1.00;;;7.70;99.90;;;;;;5049903;28;20442;-60
2023/01/09 01:38:36;;;;;;;4.55;1.00;;;7.70;99.90;;;;;;5050140;28;20498;-58
2023/01/09 01:41:03;;;;;;;2.92;1.25;;;7.70;99.90;;;;;;5050509;28;20060;-58
2023/01/09 01:44:26;;;;;;;1.80;0.73;;;7.60;99.90;;;;;;5049182;28;20391;-58
2023/01/09 01:46:54;;;;;;;5.97;0.88;;;7.60;99.90;;;;;;5026533;28;20041;-58
2023/01/09 01:49:20;;;;;;;3.25;0.63;;;7.60;99.90;;;;;;5027695;28;20041;-60
2023/01/09 01:51:47;;;;;;;;;;;7.60;99.90;;;;;;5039031;28;20053;-57
2023/01/09 01:54:19;;;;;;;4.00;0.88;;;7.60;99.90;;;;;;5048461;28;20356;-61
2023/01/09 01:56:58;;;;;;;0.80;0.40;;;7.60;99.90;;;;;;5050099;28;20040;-60
2023/01/09 01:59:41;;;;;;;1.98;0.50;;;7.50;99.90;;;;;;5050108;28;20045;-58
2023/01/09 02:02:08;;;;;;;2.45;0.40;;;7.50;99.90;;;;;;5049704;28;20037;-56
2023/01/09 02:04:38;;;;;;;1.42;0.40;;;7.50;99.90;;;;;;5048602;28;20099;-59
2023/01/09 02:07:07;;;;;;;1.92;0.35;;;7.40;99.90;;;;;;5049460;28;20037;-55
2023/01/09 02:09:34;;;;;;;1.50;0.50;;;7.40;99.90;;;;;;5050303;28;20112;-61
2023/01/09 02:12:00;;;;;;;1.25;0.50;;;7.30;99.90;;;;;;5050080;28;20041;-57
2023/01/09 02:14:29;;;;;;;5.32;1.05;;;7.30;99.90;;;;;;5048422;28;20055;-58
2023/01/09 02:17:24;;;;;;;3.08;1.05;;;7.30;99.90;;;;;;5049588;28;20043;-60
2023/01/09 02:20:25;;;;;;;0.85;0.40;;;7.20;99.90;;;;;;5030567;28;20041;-57
2023/01/09 02:23:05;;;;;;;2.75;0.30;;;7.20;99.90;;;;;;5034275;28;20041;-59
2023/01/09 02:26:01;;;;;;;1.95;0.30;;;7.20;99.90;;;;;;5049038;28;20127;-57
2023/01/09 02:28:42;;;;;;;2.65;0.30;;;7.10;99.90;;;;;;5049614;28;20036;-58
2023/01/09 02:31:19;;;;;;;0.55;0.20;;;7.10;99.90;;;;;;5050052;28;20472;-62
2023/01/09 02:34:05;;;;;;;0.77;0.20;;;7.10;99.90;;;;;;5048090;28;20043;-58
2023/01/09 02:36:58;;;;;;;2.78;0.30;;;7.00;99.90;;;;;;5049203;28;20041;-58
2023/01/09 02:40:01;;;;;;;1.58;0.30;;;7.00;99.90;;;;;;5049312;28;20044;-56
2023/01/09 02:42:28;;;;;;;1.40;0.68;;;7.00;99.90;;;;;;5046345;28;20061;-58
2023/01/09 02:44:54;;;;;;;0.65;0.30;;;6.90;99.90;;;;;;5048147;28;20051;-57
2023/01/09 02:47:19;;;;;;;1.87;0.30;;;6.90;99.90;;;;;;5049087;28;20112;-59
2023/01/09 02:49:46;;;;;;;2.23;0.97;;;6.80;99.90;;;;;;5049406;28;20041;-62
2023/01/09 02:52:40;;;;;;;2.45;0.32;;;6.80;99.90;;;;;;5048334;28;20075;-58
2023/01/09 02:55:36;;;;;;;1.30;0.35;;;6.80;99.90;;;;;;5047807;28;20045;-59
2023/01/09 02:58:33;;;;;;;1.05;0.30;;;6.80;99.90;;;;;;5050009;28;20037;-61
2023/01/09 03:01:14;;;;;;;1.70;0.55;;;6.70;99.90;;;;;;5052854;28;20044;-59
2023/01/09 03:03:52;;;;;;;1.95;0.70;;;6.70;99.90;;;;;;5052480;28;20041;-58
2023/01/09 03:06:26;;;;;;;3.33;0.93;;;6.60;99.90;;;;;;5051638;28;20124;-58
2023/01/09 03:08:57;;;;;;;2.60;0.55;;;6.60;99.90;;;;;;5051407;28;20033;-60
2023/01/09 03:11:27;;;;;;;2.35;0.50;;;6.50;99.90;;;;;;5052776;28;20098;-59
2023/01/09 03:13:56;;;;;;;5.45;0.60;;;6.50;99.90;;;;;;5052210;28;20037;-60
2023/01/09 03:16:34;;;;;;;1.42;0.90;;;6.50;99.90;;;;;;5051577;28;20041;-59
2023/01/09 03:19:00;;;;;;;1.20;0.60;;;6.50;99.90;;;;;;5052627;28;20056;-58
2023/01/09 03:21:27;;;;;;;4.15;0.55;;;6.40;99.90;;;;;;5052319;28;20545;-60
2023/01/09 03:23:56;;;;;;;1.00;0.80;;;6.40;99.90;;;;;;5050785;28;20506;-59
2023/01/09 03:26:22;;;;;;;2.67;0.73;;;6.40;99.90;;;;;;5050932;28;20051;-60
2023/01/09 03:28:49;;;;;;;1.65;1.10;;;6.30;99.90;;;;;;5052599;28;20108;-60
2023/01/09 03:31:15;;;;;;;3.38;0.82;;;6.30;99.90;;;;;;5052547;28;20094;-60
2023/01/09 03:33:41;;;;;;;1.77;1.00;;;6.30;99.90;;;;;;5052360;28;20032;-57
2023/01/09 03:36:07;;;;;;;2.30;1.20;;;6.20;99.90;;;;;;5051900;28;20041;-59
2023/01/09 03:38:33;;;;;;;4.15;1.35;;;6.20;99.90;;;;;;5051085;28;20041;-58
2023/01/09 03:40:59;;;;;;;2.93;1.20;;;6.10;99.90;;;;;;5052592;28;20044;-58
2023/01/09 03:43:24;;;;;;;3.53;1.30;;;6.10;99.90;;;;;;5052156;28;20145;-60
2023/01/09 03:45:50;;;;;;;1.70;1.47;;;6.10;99.90;;;;;;5051965;28;20299;-59
2023/01/09 03:48:15;;;;;;;2.37;1.50;;;6.00;99.90;;;;;;5052226;28;20484;-60
2023/01/09 03:50:46;;;;;;;1.93;1.63;;;6.00;99.90;;;;;;5052193;28;20041;-60
2023/01/09 03:53:12;;;;;;;3.38;1.42;;;6.00;99.90;;;;;;5052005;28;20041;-57
2023/01/09 03:55:39;;;;;;;3.47;2.28;;;6.00;99.90;;;;;;5051823;28;20442;-58
2023/01/09 03:58:04;;;;;;;2.88;1.80;;;5.90;99.90;;;;;;5033257;28;20040;-57
2023/01/09 04:00:30;;;;;;;3.25;2.03;;;5.90;99.90;;;;;;5051645;28;20654;-58
2023/01/09 04:02:56;;;;;;;9.80;2.30;;;5.90;99.90;;;;;;5051816;28;20048;-59
2023/01/09 04:05:21;;;;;;;8.03;2.93;;;5.90;99.90;;;;;;5051087;28;20033;-58
2023/01/09 04:07:47;;;;;;;3.17;2.63;;;5.80;99.90;;;;;;5051849;28;20041;-60
2023/01/09 04:10:13;;;;;;;8.25;3.50;;;5.80;99.90;;;;;;5050248;28;20045;-60
2023/01/09 04:12:38;;;;;;;7.47;4.40;;;5.80;99.90;;;;;;5052280;28;20048;-59
2023/01/09 04:15:05;;;;;;;8.95;5.10;;;5.80;99.90;;;;;;5051191;28;20091;-57
2023/01/09 04:17:30;;;;;;;12.00;5.82;;;5.80;99.90;;;;;;5051451;28;20037;-56
2023/01/09 04:19:56;;;;;;;16.30;5.47;;;5.80;99.90;;;;;;5051925;28;20037;-60
2023/01/09 04:22:21;;;;;;;10.27;5.97;;;5.80;99.90;;;;;;5050294;28;20048;-57
2023/01/09 04:24:47;;;;;;;9.67;7.20;;;5.80;99.90;;;;;;5050791;28;20508;-60
2023/01/09 04:27:12;;;;;;;7.50;6.50;;;5.80;99.90;;;;;;5051164;28;20049;-58
2023/01/09 04:29:38;;;;;;;11.67;8.40;;;5.80;99.90;;;;;;5052129;28;20094;-57
2023/01/09 04:32:04;;;;;;;12.77;7.93;;;5.70;99.90;;;;;;5051438;28;20094;-57
2023/01/09 04:34:29;;;;;;;11.18;8.75;;;5.70;99.90;;;;;;5050324;28;20037;-58
2023/01/09 04:36:55;;;;;;;12.73;8.53;;;5.70;99.90;;;;;;5051335;28;20122;-58
2023/01/09 04:39:20;;;;;;;15.40;9.33;;;5.60;99.90;;;;;;5051383;28;20052;-58
2023/01/09 04:41:49;;;;;;;11.73;7.75;;;5.60;99.90;;;;;;5051424;28;20044;-58
2023/01/09 04:44:16;;;;;;;9.20;7.25;;;5.60;99.90;;;;;;5050302;28;20045;-59
2023/01/09 04:46:42;;;;;;;8.40;7.18;;;5.60;99.90;;;;;;5050126;28;20059;-58
2023/01/09 04:49:07;;;;;;;9.10;6.30;;;5.60;99.90;;;;;;5049135;28;20181;-57
2023/01/09 04:51:33;;;;;;;11.13;6.23;;;5.60;99.90;;;;;;5051900;28;20144;-60
2023/01/09 04:53:58;;;;;;;8.83;6.57;;;5.60;99.90;;;;;;5050539;28;20548;-59
2023/01/09 04:56:24;;;;;;;11.17;6.23;;;5.60;99.90;;;;;;5051212;28;20502;-56
2023/01/09 04:58:49;;;;;;;10.33;5.97;;;5.50;99.90;;;;;;5050280;28;20076;-60
2023/01/09 05:01:15;;;;;;;7.70;6.33;;;5.50;99.90;;;;;;5051427;28;20049;-60
2023/01/09 05:03:41;;;;;;;8.77;5.63;;;5.50;99.90;;;;;;5049775;28;20401;-59
2023/01/09 05:06:06;;;;;;;7.80;5.43;;;5.60;99.90;;;;;;5050986;28;20055;-57
2023/01/09 05:08:32;;;;;;;7.67;5.40;;;5.50;99.90;;;;;;5050632;28;20044;-60
2023/01/09 05:10:58;;;;;;;13.93;5.90;;;5.50;99.90;;;;;;5050740;28;20357;-57
2023/01/09 05:13:23;;;;;;;9.27;5.50;;;5.50;99.90;;;;;;5050046;28;20411;-58
2023/01/09 05:15:49;;;;;;;6.90;5.20;;;5.50;99.90;;;;;;5050733;28;20048;-60
2023/01/09 05:18:15;;;;;;;10.87;6.87;;;5.50;99.90;;;;;;5049936;28;20529;-61
2023/01/09 05:20:40;;;;;;;13.73;6.43;;;5.50;99.90;;;;;;5049712;28;20048;-58
2023/01/09 05:23:06;;;;;;;10.90;7.03;;;5.50;99.90;;;;;;5050365;28;20087;-58
2023/01/09 05:25:31;;;;;;;12.43;7.70;;;5.40;99.90;;;;;;5049584;28;20501;-60
2023/01/09 05:27:58;;;;;;;8.97;5.83;;;5.40;99.90;;;;;;5050149;28;20494;-57
2023/01/09 05:30:24;;;;;;;9.57;6.22;;;5.40;99.90;;;;;;5050576;28;20065;-59
2023/01/09 05:32:49;;;;;;;7.87;6.43;;;5.40;99.90;;;;;;5049568;28;20080;-59
2023/01/09 05:35:15;;;;;;;8.10;6.10;;;5.40;99.90;;;;;;5048797;28;20517;-58
2023/01/09 05:37:40;;;;;;;12.17;6.53;;;5.40;99.90;;;;;;5049855;28;20520;-58
2023/01/09 05:40:07;;;;;;;9.43;6.17;;;5.40;99.90;;;;;;5050804;28;20036;-58
2023/01/09 05:42:32;;;;;;;12.80;6.70;;;5.40;99.90;;;;;;5049368;28;20041;-61
2023/01/09 05:44:58;;;;;;;9.87;6.47;;;5.40;99.90;;;;;;5049534;28;20498;-61
2023/01/09 05:47:23;;;;;;;8.33;6.07;;;5.40;99.90;;;;;;5049833;28;20041;-60
2023/01/09 05:49:49;;;;;;;6.83;5.73;;;5.40;99.90;;;;;;5050272;28;20052;-60
2023/01/09 05:52:14;;;;;;;17.43;7.63;;;5.40;99.90;;;;;;5050158;28;20045;-57
2023/01/09 05:54:40;;;;;;;10.20;5.97;;;5.40;99.90;;;;;;5049156;28;20041;-57
2023/01/09 05:57:05;;;;;;;10.13;6.00;;;5.40;99.90;;;;;;5049871;28;20502;-57
2023/01/09 05:59:31;;;;;;;9.60;5.50;;;5.40;99.90;;;;;;5050468;28;20041;-58
2023/01/09 06:01:57;;;;;;;10.87;5.17;;;5.40;99.90;;;;;;5050157;28;20040;-60
2023/01/09 06:04:22;;;;;;;6.47;4.50;;;5.40;99.90;;;;;;5048551;28;20127;-56
2023/01/09 06:06:48;;;;;;;8.27;4.90;;;5.40;99.90;;;;;;5050084;28;20639;-58
2023/01/09 06:09:13;;;;;;;9.77;5.37;;;5.40;99.90;;;;;;5049724;28;20380;-60
2023/01/09 06:11:39;;;;;;;7.43;4.03;;;5.40;99.90;;;;;;5049691;28;20175;-56
2023/01/09 06:14:05;;;;;;;5.10;3.53;;;5.40;99.90;;;;;;5048589;28;20076;-57
2023/01/09 06:16:31;;;;;;;6.63;3.65;;;5.40;99.90;;;;;;5047780;28;20460;-59
2023/01/09 06:18:56;;;;;;;7.53;3.75;;;5.30;99.90;;;;;;5049184;28;20274;-58
2023/01/09 06:21:22;;;;;;;5.67;2.97;;;5.30;99.90;;;;;;5049726;28;20039;-60
2023/01/09 06:23:48;;;;;;;9.03;3.13;;;5.30;99.90;;;;;;5048899;28;20087;-59
2023/01/09 06:26:13;;;;;;;5.47;3.07;;;5.30;99.90;;;;;;5048939;28;20047;-58
2023/01/09 06:28:39;;;;;;;5.63;3.23;;;5.30;99.90;;;;;;5049060;28;20060;-57
2023/01/09 06:31:04;;;;;;;15.00;3.50;;;5.30;99.90;;;;;;5041674;28;20449;-60
2023/01/09 06:33:31;;;;;;;7.27;2.40;;;5.30;99.90;;;;;;5048295;28;20216;-59
2023/01/09 06:35:56;;;;;;;9.27;4.07;;;5.30;99.90;;;;;;5048796;28;20094;-60
2023/01/09 06:38:22;;;;;;;7.05;2.65;;;5.30;99.90;;;;;;5049597;28;20041;-58
2023/01/09 06:40:49;;;;;;;6.30;2.77;;;5.30;99.90;;;;;;5049083;28;20556;-59
2023/01/09 06:43:14;;;;;;;;;;;5.30;99.90;;;;;;5048890;28;20045;-58
2023/01/09 06:45:42;;;;;;;6.25;2.90;;;5.20;99.90;;;;;;5048906;28;19967;-60
2023/01/09 06:48:08;;;;;;;4.38;2.65;;;5.20;99.90;;;;;;5048307;28;20459;-59
2023/01/09 06:50:34;;;;;;;5.45;2.85;;;5.20;99.90;;;;;;5044105;28;20044;-59
2023/01/09 06:53:00;;;;;;;8.23;2.83;;;5.20;99.90;;;;;;5047788;28;20039;-58
2023/01/09 06:55:25;;;;;;;7.67;2.37;;;5.20;99.90;;;;;;5048583;28;20110;-59
2023/01/09 06:57:52;;;;;;;6.93;2.30;;;5.10;99.90;;;;;;5048890;28;20128;-57
2023/01/09 07:00:18;;;;;;;12.52;2.38;;;5.10;99.90;;;;;;5048973;28;20069;-60
2023/01/09 07:02:43;;;;;;;4.85;2.72;;;5.10;99.90;;;;;;5049116;28;20537;-61
2023/01/09 07:05:10;;;;;;;6.30;2.90;;;5.20;99.90;;;;;;5048373;28;20098;-57
2023/01/09 07:07:40;;;;;;;10.13;3.65;;;5.20;99.90;;;;;;5048522;28;20409;-58
2023/01/09 07:10:07;;;;;;;7.13;3.08;;;5.20;99.90;;;;;;5048079;28;20124;-58
2023/01/09 07:12:32;;;;;;;5.10;2.55;;;5.20;99.90;;;;;;5049100;28;20072;-59
2023/01/09 07:14:58;;;;;;;10.53;3.20;;;5.30;99.90;;;;;;5047535;28;20041;-58
2023/01/09 07:17:24;;;;;;;11.43;3.07;;;5.30;99.90;;;;;;5048897;28;20102;-57
2023/01/09 07:19:49;;;;;;;4.72;2.60;;;5.30;99.90;;;;;;5049306;28;20123;-57
2023/01/09 07:22:15;;;;;;;4.93;2.80;;;5.30;99.90;;;;;;5049457;28;20578;-57
2023/01/09 07:24:43;;;;;;;7.43;2.55;;;5.40;99.90;;;;;;5047397;28;20039;-59
2023/01/09 07:27:09;;;;;;;8.05;2.88;;;5.40;99.90;;;;;;5059868;28;20081;-57
2023/01/09 07:29:34;;;;;;;9.38;3.80;;;5.40;99.90;;;;;;5048480;28;20406;-57
2023/01/09 07:32:00;;;;;;;5.60;2.17;;;5.50;99.90;;;;;;5048330;28;20029;-59
2023/01/09 07:34:26;;;;;;;5.38;2.28;;;5.50;99.90;;;;;;5047822;28;20040;-60
2023/01/09 07:36:51;;;;;;;8.37;2.70;;;5.60;99.90;;;;;;5048897;28;20094;-60
2023/01/09 07:39:17;;;;;;;9.93;2.80;;;5.60;99.90;;;;;;5047027;28;20493;-57
2023/01/09 07:41:43;;;;;;;6.22;2.05;;;5.60;99.90;;;;;;5049071;28;20102;-56
2023/01/09 07:44:09;;;;;;;7.50;2.17;;;5.60;99.90;;;;;;5045542;28;20360;-57
2023/01/09 07:46:35;;;;;;;;;;;5.70;99.90;;;;;;5052521;28;20072;-61
2023/01/09 07:49:01;;;;;;;4.95;2.08;;;5.70;99.90;;;;;;5051925;28;20444;-57
2023/01/09 07:51:26;;;;;;;9.97;2.70;;;5.70;99.90;;;;;;5051624;28;20037;-61
2023/01/09 07:53:52;;;;;;;7.30;1.90;;;5.70;99.90;;;;;;5051248;28;20119;-58
2023/01/09 07:56:17;;;;;;;7.80;3.37;;;5.80;99.90;;;;;;5051428;28;20041;-58
2023/01/09 07:58:43;;;;;;;12.33;2.40;;;5.80;99.90;;;;;;5050740;28;20452;-61
2023/01/09 08:01:08;;;;;;;7.20;3.03;;;5.80;99.90;;;;;;5052372;28;20522;-58
2023/01/09 08:03:34;;;;;;;5.63;2.37;;;5.90;99.90;;;;;;5051319;28;20542;-60
2023/01/09 08:06:00;;;;;;;6.50;2.47;;;5.90;99.90;;;;;;5051576;28;20093;-60
2023/01/09 08:08:25;;;;;;;18.52;3.15;;;5.90;99.90;;;;;;5051504;28;20044;-61
2023/01/09 08:10:51;;;;;;;7.80;2.30;;;6.00;99.90;;;;;;5047830;28;20033;-61
2023/01/09 08:13:17;;;;;;;11.50;2.97;;;6.00;99.90;;;;;;5049185;28;20110;-60
2023/01/09 08:15:42;;;;;;;9.23;2.50;;;6.00;99.90;;;;;;5050708;28;21229;-61
2023/01/09 08:18:08;;;;;;;6.50;2.13;;;6.00;99.90;;;;;;5050547;28;20143;-59
2023/01/09 08:20:33;;;;;;;4.10;2.00;;;6.00;99.90;;;;;;5051397;28;20044;-62
2023/01/09 08:22:59;;;;;;;5.57;2.07;;;6.00;99.90;;;;;;5066174;28;20045;-58
2023/01/09 08:25:25;;;;;;;9.77;1.80;;;6.10;99.90;;;;;;5050816;28;20047;-60
2023/01/09 08:27:50;;;;;;;4.30;1.80;;;6.10;99.90;;;;;;5050789;28;20078;-62
2023/01/09 08:30:17;;;;;;;12.40;2.50;;;6.10;99.90;;;;;;5051283;28;20041;-59
2023/01/09 08:32:43;;;;;;;8.15;2.00;;;6.10;99.90;;;;;;5051892;28;20037;-59
2023/01/09 08:35:08;;;;;;;8.90;1.88;;;6.20;99.90;;;;;;5049445;28;20059;-60
2023/01/09 08:37:34;;;;;;;8.10;1.73;;;6.20;99.90;;;;;;5051440;28;20476;-57
2023/01/09 08:40:00;;;;;;;4.30;1.85;;;6.20;99.90;;;;;;5050977;28;20036;-60
2023/01/09 08:47:56;;;;;;;7.97;1.90;;;6.30;99.90;;;;;;5050551;28;20516;-60
2023/01/09 08:50:21;;;;;;;5.07;2.17;;;6.20;99.90;;;;;;5050689;28;20051;-62
2023/01/09 08:52:47;;;;;;;3.73;1.80;;;6.30;99.90;;;;;;5049023;28;20112;-60
2023/01/09 08:55:13;;;;;;;6.17;2.17;;;6.30;99.90;;;;;;5049232;28;20041;-62
2023/01/09 08:57:48;;;;;;;9.40;2.87;;;6.30;99.90;;;;;;5037697;28;20037;-61
2023/01/09 09:00:14;;;;;;;7.90;2.90;;;6.30;99.90;;;;;;5051420;28;20108;-60
2023/01/09 09:02:39;;;;;;;6.28;1.77;;;6.30;99.90;;;;;;5051158;28;20106;-60
2023/01/09 09:05:05;;;;;;;9.40;2.67;;;6.30;99.90;;;;;;5050370;28;20049;-61
2023/01/09 09:07:31;;;;;;;13.25;2.60;;;6.30;99.90;;;;;;5048324;28;20110;-60
2023/01/09 09:09:57;;;;;;;6.20;2.80;;;6.30;99.90;;;;;;5050390;28;20485;-60
2023/01/09 09:12:22;;;;;;;7.60;2.50;;;6.40;99.90;;;;;;5049468;28;20111;-61
2023/01/09 09:17:32;;;;;;;6.38;2.47;;;6.40;99.90;;;;;;5050137;28;20283;-61
2023/01/09 09:19:59;;;;;;;8.37;2.50;;;6.50;99.90;;;;;;5049597;28;20037;-58
2023/01/09 09:22:24;;;;;;;;;;;6.50;99.90;;;;;;5051001;28;20290;-63
2023/01/09 09:24:50;;;;;;;6.25;2.22;;;6.50;99.90;;;;;;5049245;28;19940;-60
2023/01/09 09:27:16;;;;;;;9.33;1.73;;;6.50;99.90;;;;;;5049949;28;20065;-61
2023/01/09 09:29:41;;;;;;;8.63;1.80;;;6.50;99.90;;;;;;5049344;28;20530;-60
2023/01/09 09:32:07;;;;;;;8.57;2.27;;;6.60;99.90;;;;;;5048583;28;20040;-61
2023/01/09 09:34:32;;;;;;;13.60;2.23;;;6.60;99.90;;;;;;5048367;28;20028;-60
2023/01/09 09:36:58;;;;;;;9.93;2.87;;;6.60;99.90;;;;;;5045637;28;20726;-60
2023/01/09 09:39:23;;;;;;;5.87;1.60;;;6.70;99.90;;;;;;5036488;28;20037;-60
2023/01/09 09:45:00;;;;;;;5.68;1.92;;;6.70;99.90;;;;;;5048229;28;20649;-61
2023/01/09 09:48:03;;;;;;;10.10;2.10;;;6.70;99.90;;;;;;5049918;28;20095;-61
2023/01/09 09:51:04;;;;;;;13.60;2.47;;;6.80;99.90;;;;;;5045456;28;20040;-61
2023/01/09 09:53:39;;;;;;;9.50;2.00;;;6.80;99.90;;;;;;5051418;28;20040;-59
2023/01/09 09:56:10;;;;;;;8.27;1.75;;;6.80;99.90;;;;;;5048174;28;20032;-60
2023/01/09 09:58:39;;;;;;;9.68;1.92;;;6.80;99.90;;;;;;5047290;28;20051;-60
2023/01/09 10:01:07;;;;;;;10.00;1.70;;;6.80;99.90;;;;;;5047180;28;20505;-62
2023/01/09 10:03:37;;;;;;;9.77;1.92;;;6.80;99.90;;;;;;5042467;28;20108;-59
2023/01/09 10:06:10;;;;;;;6.63;1.45;;;6.80;99.90;;;;;;5046771;28;20041;-60
2023/01/09 10:09:20;;;;;;;6.97;1.88;;;6.70;99.90;;;;;;5046646;28;20045;-62
2023/01/09 10:12:22;;;;;;;6.25;1.38;;;6.70;99.90;;;;;;5044869;28;20045;-59
2023/01/09 10:14:48;;;;;;;7.80;1.60;;;6.70;99.90;;;;;;5049795;28;20202;-60
2023/01/09 10:17:55;;;;;;;5.38;1.75;;;6.70;99.90;;;;;;5054229;28;20068;-61
2023/01/09 10:20:23;;;;;;;5.32;1.63;;;6.70;99.90;;;;;;5048949;28;20040;-59
2023/01/09 10:22:58;;;;;;;7.85;2.28;;;6.70;99.90;;;;;;5052185;28;20101;-60
2023/01/09 10:25:35;;;;;;;2.83;1.63;;;6.70;99.90;;;;;;5047568;28;20301;-62
2023/01/09 10:28:26;;;;;;;10.68;2.50;;;6.70;99.90;;;;;;5054119;28;20051;-60
2023/01/09 10:31:35;;;;;;;8.77;2.65;;;6.70;99.90;;;;;;5048542;28;20048;-58
2023/01/09 10:34:12;;;;;;;6.95;1.77;;;6.70;99.90;;;;;;5042542;28;20398;-60
2023/01/09 10:37:04;;;;;;;7.65;2.22;;;6.70;99.90;;;;;;5051217;28;20052;-61
2023/01/09 10:39:45;;;;;;;7.80;2.15;;;6.80;99.90;;;;;;5057441;28;20489;-59
2023/01/09 10:42:21;;;;;;;4.00;1.83;;;6.80;99.90;;;;;;5046290;28;20052;-62
2023/01/09 10:45:18;;;;;;;6.25;2.33;;;6.80;99.90;;;;;;5053444;28;20401;-59
2023/01/09 10:47:44;;;;;;;6.35;2.10;;;6.70;99.90;;;;;;5039862;28;20526;-59
2023/01/09 10:50:23;;;;;;;7.78;2.70;;;6.70;99.90;;;;;;5037619;28;20485;-62
2023/01/09 10:52:52;;;;;;;3.63;1.92;;;6.70;99.90;;;;;;5041521;28;20081;-61
2023/01/09 10:55:41;;;;;;;5.35;2.38;;;6.70;99.90;;;;;;5039823;28;20575;-63
2023/01/09 10:58:12;;;;;;;3.40;2.28;;;6.70;99.90;;;;;;5040563;28;20041;-62
2023/01/09 11:00:39;;;;;;;6.13;2.70;;;6.70;99.90;;;;;;5041237;28;20112;-61
2023/01/09 11:03:05;;;;;;;5.82;2.70;;;6.70;99.90;;;;;;5040563;28;20052;-60
2023/01/09 11:05:30;;;;;;;3.10;2.58;;;6.70;99.90;;;;;;5040577;28;20060;-60
2023/01/09 11:08:08;;;;;;;9.60;3.50;;;6.70;99.90;;;;;;5037808;28;21446;-61
2023/01/09 11:11:00;;;;;;;5.63;2.80;;;6.70;99.90;;;;;;5040434;28;20646;-60
2023/01/09 11:13:32;;;;;;;3.72;2.28;;;6.70;99.90;;;;;;5033380;28;20057;-61
2023/01/09 11:15:57;;;;;;;6.85;3.03;;;6.70;99.90;;;;;;5036421;28;20120;-61
2023/01/09 11:18:24;;;;;;;8.80;3.43;;;6.70;99.90;;;;;;5049142;28;20589;-61
2023/01/09 11:20:51;;;;;;;7.90;4.32;;;6.70;99.90;;;;;;5035587;28;20191;-61
2023/01/09 11:23:24;;;;;;;;;;;6.70;99.90;;;;;;5026896;28;20056;-62
2023/01/09 11:25:55;;;;;;;7.25;4.38;;;6.70;99.90;;;;;;5051591;28;20446;-61
2023/01/09 11:28:21;;;;;;;8.27;4.28;;;6.70;99.90;;;;;;5047713;28;20336;-60
2023/01/09 11:31:01;;;;;;;7.77;5.00;;;6.70;99.90;;;;;;5058737;28;20041;-60
2023/01/09 11:33:35;;;;;;;5.28;4.03;;;6.80;99.90;;;;;;5047034;28;20084;-62
2023/01/09 11:36:09;;;;;;;8.23;4.10;;;6.80;99.90;;;;;;5051446;28;20036;-61
2023/01/09 11:38:57;;;;;;;8.50;4.82;;;6.80;99.90;;;;;;5050791;28;20072;-61
2023/01/09 11:41:29;;;;;;;;;;;6.80;99.90;;;;;;5050167;28;20064;-61
2023/01/09 11:43:57;;;;;;;6.00;4.90;;;6.80;99.90;;;;;;5053813;28;20490;-61
2023/01/09 11:46:38;;;;;;;9.85;6.00;;;6.80;99.90;;;;;;5062693;28;20532;-58
2023/01/09 11:49:28;;;;;;;6.80;6.10;;;6.90;99.90;;;;;;5055045;28;20049;-61
2023/01/09 11:52:12;;;;;;;8.38;5.65;;;6.80;99.90;;;;;;5053702;28;20056;-61
2023/01/09 11:54:43;;;;;;;9.18;7.00;;;6.90;99.90;;;;;;5050968;28;20115;-61
2023/01/09 11:57:10;;;;;;;8.85;6.57;;;6.90;99.90;;;;;;5048201;28;20051;-61
2023/01/09 11:59:36;;;;;;;9.30;6.93;;;7.00;99.90;;;;;;5054987;28;20533;-61
2023/01/09 12:02:05;;;;;;;10.40;6.93;;;7.00;99.90;;;;;;5050667;28;20037;-62
2023/01/09 12:04:57;;;;;;;10.23;7.05;;;7.00;99.90;;;;;;5057665;28;20044;-61
2023/01/09 12:07:47;;;;;;;10.05;7.05;;;7.00;99.90;;;;;;5043103;28;20131;-60
2023/01/09 12:10:42;;;;;;;9.48;8.10;;;7.10;99.90;;;;;;5052435;28;20075;-59
2023/01/09 12:13:32;;;;;;;14.35;7.97;;;7.10;99.90;;;;;;5053841;28;20060;-61
2023/01/09 12:16:25;;;;;;;16.08;8.65;;;7.10;99.90;;;;;;5056062;28;20142;-61
2023/01/09 12:19:11;;;;;;;11.73;8.50;;;7.20;99.90;;;;;;5062701;28;20053;-61
2023/01/09 12:21:45;;;;;;;13.02;9.13;;;7.20;99.90;;;;;;5054657;28;20032;-60
2023/01/09 12:24:43;;;;;;;12.82;10.00;;;7.30;99.90;;;;;;5057106;28;20033;-61
2023/01/09 12:27:36;;;;;;;13.20;9.43;;;7.30;99.90;;;;;;5059665;28;20072;-59
2023/01/09 12:30:25;;;;;;;17.38;9.55;;;7.30;99.90;;;;;;5053516;28;20037;-61
2023/01/09 12:33:08;;;;;;;11.52;10.05;;;7.30;99.90;;;;;;5056031;28;20040;-62
2023/01/09 12:35:45;;;;;;;13.60;10.57;;;7.30;99.90;;;;;;5056284;28;20052;-60
2023/01/09 12:38:24;;;;;;;19.65;10.35;;;7.30;99.90;;;;;;5053644;28;20037;-58
2023/01/09 12:40:58;;;;;;;18.50;10.63;;;7.30;99.90;;;;;;5062436;28;20317;-60
2023/01/09 12:43:34;;;;;;;13.77;10.40;;;7.30;99.90;;;;;;5051386;28;20476;-61
2023/01/09 12:46:15;;;;;;;13.25;10.70;;;7.30;99.90;;;;;;5057533;28;20052;-61
2023/01/09 12:49:07;;;;;;;14.80;10.75;;;7.40;99.90;;;;;;5049045;28;20509;-62
2023/01/09 12:51:54;;;;;;;20.48;12.63;;;7.30;99.90;;;;;;5048214;28;20045;-62
2023/01/09 12:54:25;;;;;;;17.13;12.07;;;7.40;99.90;;;;;;5059003;28;20534;-58
2023/01/09 12:57:14;;;;;;;17.52;11.65;;;7.40;99.90;;;;;;5070353;28;20048;-61
2023/01/09 13:00:14;;;;;;;15.35;11.80;;;7.40;99.90;;;;;;5059760;28;20044;-61
2023/01/09 13:02:47;;;;;;;18.98;12.90;;;7.40;99.90;;;;;;5052847;28;20036;-60
2023/01/09 13:05:22;;;;;;;25.25;14.25;;;7.40;99.90;;;;;;5051311;28;20040;-61
2023/01/09 13:07:52;;;;;;;19.05;12.82;;;7.40;99.90;;;;;;5059073;28;20044;-61
2023/01/09 13:10:24;;;;;;;17.67;13.20;;;7.40;99.90;;;;;;5057729;28;20061;-61
2023/01/09 13:12:51;;;;;;;15.77;12.68;;;7.50;99.90;;;;;;5057434;28;20478;-61
2023/01/09 13:15:34;;;;;;;18.58;14.55;;;7.50;99.90;;;;;;5059323;28;20397;-58
2023/01/09 13:18:11;;;;;;;17.45;13.05;;;7.50;99.90;;;;;;5054593;28;20466;-61
2023/01/09 13:20:49;;;;;;;19.70;14.45;;;7.50;99.90;;;;;;5057974;28;20033;-57
2023/01/09 13:23:20;;;;;;;17.45;12.45;;;7.50;99.90;;;;;;5057639;28;20047;-60
2023/01/09 13:25:50;;;;;;;16.75;12.57;;;7.60;99.90;;;;;;5054919;28;20503;-59
2023/01/09 13:28:45;;;;;;;17.10;12.05;;;7.50;99.90;;;;;;5058620;28;20050;-60